sensor_id;sensor_type;location;lat;lon;timestamp;temperature;humidity
72940;DHT22;61094;51.154;13.570;2023-02-15T00:00:35;1.30;99.90
72940;DHT22;61094;51.154;13.570;2023-02-15T00:02:37;1.30;99.90
72940;DHT22;61094;51.154;13.570;2023-02-15T00:04:39;1.30;99.90
72940;DHT22;61094;51.154;13.570;2023-02-15T00:06:50;1.30;99.90
72940;DHT22;61094;51.154;13.570;2023-02-15T00:08:53;1.20;99.90
72940;DHT22;61094;51.154;13.570;2023-02-15T00:11:03;1.30;99.90
72940;DHT22;61094;51.154;13.570;2023-02-15T00:13:05;1.20;99.90
72940;DHT22;61094;51.154;13.570;2023-02-15T00:15:07;1.20;99.90
72940;DHT22;61094;51.154;13.570;2023-02-15T00:17:10;1.20;99.90
72940;DHT22;61094;51.154;13.570;2023-02-15T00:19:14;1.20;99.90
72940;DHT22;61094;51.154;13.570;2023-02-15T00:21:16;1.20;99.90
72940;DHT22;61094;51.154;13.570;2023-02-15T00:23:17;1.20;99.90
72940;DHT22;61094;51.154;13.570;2023-02-15T00:25:19;1.20;99.90
72940;DHT22;61094;51.154;13.570;2023-02-15T00:27:21;1.20;99.90
72940;DHT22;61094;51.154;13.570;2023-02-15T00:29:22;1.20;99.90
72940;DHT22;61094;51.154;13.570;2023-02-15T00:31:24;1.20;99.90
72940;DHT22;61094;51.154;13.570;2023-02-15T00:33:27;1.20;99.90
72940;DHT22;61094;51.154;13.570;2023-02-15T00:35:29;1.10;99.90
72940;DHT22;61094;51.154;13.570;2023-02-15T00:37:31;1.20;99.90
72940;DHT22;61094;51.154;13.570;2023-02-15T00:39:33;1.20;99.90
72940;DHT22;61094;51.154;13.570;2023-02-15T00:41:34;1.10;99.90
72940;DHT22;61094;51.154;13.570;2023-02-15T00:43:36;1.20;99.90
72940;DHT22;61094;51.154;13.570;2023-02-15T00:45:38;1.20;99.90
72940;DHT22;61094;51.154;13.570;2023-02-15T00:47:39;1.20;99.90
72940;DHT22;61094;51.154;13.570;2023-02-15T00:49:42;1.10;99.90
72940;DHT22;61094;51.154;13.570;2023-02-15T00:51:44;1.10;99.90
72940;DHT22;61094;51.154;13.570;2023-02-15T00:53:46;1.10;99.90
72940;DHT22;61094;51.154;13.570;2023-02-15T00:55:48;1.20;99.90
72940;DHT22;61094;51.154;13.570;2023-02-15T00:57:50;1.20;99.90
72940;DHT22;61094;51.154;13.570;2023-02-15T00:59:52;1.10;99.90
72940;DHT22;61094;51.154;13.570;2023-02-15T01:01:53;1.10;99.90
72940;DHT22;61094;51.154;13.570;2023-02-15T01:03:55;1.10;99.90
72940;DHT22;61094;51.154;13.570;2023-02-15T01:05:58;1.10;99.90
72940;DHT22;61094;51.154;13.570;2023-02-15T01:08:01;1.10;99.90
72940;DHT22;61094;51.154;13.570;2023-02-15T01:10:03;1.10;99.90
72940;DHT22;61094;51.154;13.570;2023-02-15T01:12:07;1.10;99.90
72940;DHT22;61094;51.154;13.570;2023-02-15T01:14:09;1.10;99.90
72940;DHT22;61094;51.154;13.570;2023-02-15T01:16:12;1.10;99.90
72940;DHT22;61094;51.154;13.570;2023-02-15T01:18:14;1.10;99.90
72940;DHT22;61094;51.154;13.570;2023-02-15T01:20:17;1.10;99.90
72940;DHT22;61094;51.154;13.570;2023-02-15T01:22:20;1.10;99.90
72940;DHT22;61094;51.154;13.570;2023-02-15T01:24:22;1.10;99.90
72940;DHT22;61094;51.154;13.570;2023-02-15T01:26:23;1.10;99.90
72940;DHT22;61094;51.154;13.570;2023-02-15T01:28:25;1.10;99.90
72940;DHT22;61094;51.154;13.570;2023-02-15T01:30:27;1.10;99.90
72940;DHT22;61094;51.154;13.570;2023-02-15T01:32:28;1.10;99.90
72940;DHT22;61094;51.154;13.570;2023-02-15T01:34:30;1.10;99.90
72940;DHT22;61094;51.154;13.570;2023-02-15T01:36:33;1.10;99.90
72940;DHT22;61094;51.154;13.570;2023-02-15T01:38:37;1.10;99.90
72940;DHT22;61094;51.154;13.570;2023-02-15T01:40:40;1.20;99.90
72940;DHT22;61094;51.154;13.570;2023-02-15T01:42:42;1.10;99.90
72940;DHT22;61094;51.154;13.570;2023-02-15T01:44:49;1.10;99.90
72940;DHT22;61094;51.154;13.570;2023-02-15T01:46:53;1.10;99.90
72940;DHT22;61094;51.154;13.570;2023-02-15T01:49:00;1.10;99.90
72940;DHT22;61094;51.154;13.570;2023-02-15T01:51:02;1.20;99.90
72940;DHT22;61094;51.154;13.570;2023-02-15T01:53:08;1.10;99.90
72940;DHT22;61094;51.154;13.570;2023-02-15T01:55:15;1.20;99.90
72940;DHT22;61094;51.154;13.570;2023-02-15T01:57:21;1.10;99.90
72940;DHT22;61094;51.154;13.570;2023-02-15T01:59:25;1.10;99.90
72940;DHT22;61094;51.154;13.570;2023-02-15T02:01:27;1.10;99.90
72940;DHT22;61094;51.154;13.570;2023-02-15T02:03:38;1.10;99.90
72940;DHT22;61094;51.154;13.570;2023-02-15T02:05:43;1.20;99.90
72940;DHT22;61094;51.154;13.570;2023-02-15T02:07:48;1.20;99.90
72940;DHT22;61094;51.154;13.570;2023-02-15T02:09:52;1.20;99.90
72940;DHT22;61094;51.154;13.570;2023-02-15T02:11:59;1.20;99.90
72940;DHT22;61094;51.154;13.570;2023-02-15T02:14:01;1.20;99.90
72940;DHT22;61094;51.154;13.570;2023-02-15T02:16:08;1.20;99.90
72940;DHT22;61094;51.154;13.570;2023-02-15T02:18:21;1.20;99.90
72940;DHT22;61094;51.154;13.570;2023-02-15T02:20:43;1.20;99.90
72940;DHT22;61094;51.154;13.570;2023-02-15T02:23:11;1.20;99.90
72940;DHT22;61094;51.154;13.570;2023-02-15T02:25:36;1.20;99.90
72940;DHT22;61094;51.154;13.570;2023-02-15T02:27:47;1.20;99.90
72940;DHT22;61094;51.154;13.570;2023-02-15T02:35:16;1.20;99.90
72940;DHT22;61094;51.154;13.570;2023-02-15T02:37:26;1.20;99.90
72940;DHT22;61094;51.154;13.570;2023-02-15T02:39:39;1.20;99.90
72940;DHT22;61094;51.154;13.570;2023-02-15T02:41:50;1.20;99.90
72940;DHT22;61094;51.154;13.570;2023-02-15T02:43:59;1.10;99.90
72940;DHT22;61094;51.154;13.570;2023-02-15T02:46:08;1.10;99.90
72940;DHT22;61094;51.154;13.570;2023-02-15T02:48:14;1.10;99.90
72940;DHT22;61094;51.154;13.570;2023-02-15T02:50:21;1.10;99.90
72940;DHT22;61094;51.154;13.570;2023-02-15T02:52:45;1.10;99.90
72940;DHT22;61094;51.154;13.570;2023-02-15T02:54:47;1.10;99.90
72940;DHT22;61094;51.154;13.570;2023-02-15T02:56:50;1.10;99.90
72940;DHT22;61094;51.154;13.570;2023-02-15T02:58:58;1.10;99.90
72940;DHT22;61094;51.154;13.570;2023-02-15T03:01:05;1.10;99.90
72940;DHT22;61094;51.154;13.570;2023-02-15T03:03:11;1.10;99.90
72940;DHT22;61094;51.154;13.570;2023-02-15T03:05:18;1.10;99.90
72940;DHT22;61094;51.154;13.570;2023-02-15T03:07:22;1.10;99.90
72940;DHT22;61094;51.154;13.570;2023-02-15T03:09:28;1.10;99.90
72940;DHT22;61094;51.154;13.570;2023-02-15T03:11:35;1.10;99.90
72940;DHT22;61094;51.154;13.570;2023-02-15T03:13:37;1.00;99.90
72940;DHT22;61094;51.154;13.570;2023-02-15T03:15:41;1.10;99.90
72940;DHT22;61094;51.154;13.570;2023-02-15T03:18:00;1.00;99.90
72940;DHT22;61094;51.154;13.570;2023-02-15T03:20:07;1.00;99.90
72940;DHT22;61094;51.154;13.570;2023-02-15T03:22:14;1.00;99.90
72940;DHT22;61094;51.154;13.570;2023-02-15T03:24:21;1.00;99.90
72940;DHT22;61094;51.154;13.570;2023-02-15T03:26:25;1.00;99.90
72940;DHT22;61094;51.154;13.570;2023-02-15T03:28:31;1.00;99.90
72940;DHT22;61094;51.154;13.570;2023-02-15T03:30:36;1.00;99.90
72940;DHT22;61094;51.154;13.570;2023-02-15T03:32:41;1.00;99.90
72940;DHT22;61094;51.154;13.570;2023-02-15T03:34:44;1.00;99.90
72940;DHT22;61094;51.154;13.570;2023-02-15T03:36:49;1.00;99.90
72940;DHT22;61094;51.154;13.570;2023-02-15T03:38:58;1.00;99.90
72940;DHT22;61094;51.154;13.570;2023-02-15T03:41:02;1.00;99.90
72940;DHT22;61094;51.154;13.570;2023-02-15T03:43:14;1.00;99.90
72940;DHT22;61094;51.154;13.570;2023-02-15T03:45:22;0.90;99.90
72940;DHT22;61094;51.154;13.570;2023-02-15T03:47:27;0.90;99.90
72940;DHT22;61094;51.154;13.570;2023-02-15T03:49:31;0.90;99.90
72940;DHT22;61094;51.154;13.570;2023-02-15T03:51:37;0.90;99.90
72940;DHT22;61094;51.154;13.570;2023-02-15T03:53:40;0.90;99.90
72940;DHT22;61094;51.154;13.570;2023-02-15T03:55:46;0.90;99.90
72940;DHT22;61094;51.154;13.570;2023-02-15T03:57:48;0.80;99.90
72940;DHT22;61094;51.154;13.570;2023-02-15T04:00:12;0.80;99.90
72940;DHT22;61094;51.154;13.570;2023-02-15T04:02:37;0.80;99.90
72940;DHT22;61094;51.154;13.570;2023-02-15T04:04:43;0.80;99.90
72940;DHT22;61094;51.154;13.570;2023-02-15T04:06:46;0.80;99.90
72940;DHT22;61094;51.154;13.570;2023-02-15T04:08:47;0.80;99.90
72940;DHT22;61094;51.154;13.570;2023-02-15T04:11:08;0.80;99.90
72940;DHT22;61094;51.154;13.570;2023-02-15T04:13:10;0.80;99.90
72940;DHT22;61094;51.154;13.570;2023-02-15T04:15:12;0.80;99.90
72940;DHT22;61094;51.154;13.570;2023-02-15T04:17:31;0.80;99.90
72940;DHT22;61094;51.154;13.570;2023-02-15T04:19:33;0.80;99.90
72940;DHT22;61094;51.154;13.570;2023-02-15T04:21:52;0.80;99.90
72940;DHT22;61094;51.154;13.570;2023-02-15T04:24:12;0.80;99.90
72940;DHT22;61094;51.154;13.570;2023-02-15T04:26:33;0.80;99.90
72940;DHT22;61094;51.154;13.570;2023-02-15T04:28:34;0.80;99.90
72940;DHT22;61094;51.154;13.570;2023-02-15T04:30:36;0.80;99.90
72940;DHT22;61094;51.154;13.570;2023-02-15T04:32:38;0.80;99.90
72940;DHT22;61094;51.154;13.570;2023-02-15T04:34:40;0.70;99.90
72940;DHT22;61094;51.154;13.570;2023-02-15T04:36:42;0.70;99.90
72940;DHT22;61094;51.154;13.570;2023-02-15T04:38:44;0.70;99.90
72940;DHT22;61094;51.154;13.570;2023-02-15T04:40:49;0.70;99.90
72940;DHT22;61094;51.154;13.570;2023-02-15T04:42:53;0.70;99.90
72940;DHT22;61094;51.154;13.570;2023-02-15T04:44:55;0.70;99.90
72940;DHT22;61094;51.154;13.570;2023-02-15T04:46:56;0.70;99.90
72940;DHT22;61094;51.154;13.570;2023-02-15T04:48:58;0.70;99.90
72940;DHT22;61094;51.154;13.570;2023-02-15T04:51:04;0.70;99.90
72940;DHT22;61094;51.154;13.570;2023-02-15T04:53:06;0.60;99.90
72940;DHT22;61094;51.154;13.570;2023-02-15T04:55:07;0.60;99.90
72940;DHT22;61094;51.154;13.570;2023-02-15T04:57:09;0.60;99.90
72940;DHT22;61094;51.154;13.570;2023-02-15T04:59:12;0.60;99.90
72940;DHT22;61094;51.154;13.570;2023-02-15T05:01:14;0.60;99.90
72940;DHT22;61094;51.154;13.570;2023-02-15T05:03:16;0.60;99.90
72940;DHT22;61094;51.154;13.570;2023-02-15T05:05:18;0.60;99.90
72940;DHT22;61094;51.154;13.570;2023-02-15T05:07:19;0.60;99.90
72940;DHT22;61094;51.154;13.570;2023-02-15T05:09:21;0.60;99.90
72940;DHT22;61094;51.154;13.570;2023-02-15T05:11:23;0.60;99.90
72940;DHT22;61094;51.154;13.570;2023-02-15T05:13:25;0.70;99.90
72940;DHT22;61094;51.154;13.570;2023-02-15T05:15:28;0.60;99.90
72940;DHT22;61094;51.154;13.570;2023-02-15T05:17:29;0.60;99.90
72940;DHT22;61094;51.154;13.570;2023-02-15T05:19:31;0.70;99.90
72940;DHT22;61094;51.154;13.570;2023-02-15T05:21:33;0.70;99.90
72940;DHT22;61094;51.154;13.570;2023-02-15T05:23:35;0.70;99.90
72940;DHT22;61094;51.154;13.570;2023-02-15T05:25:36;0.70;99.90
72940;DHT22;61094;51.154;13.570;2023-02-15T05:27:55;0.60;99.90
72940;DHT22;61094;51.154;13.570;2023-02-15T05:30:15;0.70;99.90
72940;DHT22;61094;51.154;13.570;2023-02-15T05:32:18;0.70;99.90
72940;DHT22;61094;51.154;13.570;2023-02-15T05:34:20;0.70;99.90
72940;DHT22;61094;51.154;13.570;2023-02-15T05:36:21;0.70;99.90
72940;DHT22;61094;51.154;13.570;2023-02-15T05:38:23;0.70;99.90
72940;DHT22;61094;51.154;13.570;2023-02-15T05:40:25;0.70;99.90
72940;DHT22;61094;51.154;13.570;2023-02-15T05:42:26;0.70;99.90
72940;DHT22;61094;51.154;13.570;2023-02-15T05:44:28;0.70;99.90
72940;DHT22;61094;51.154;13.570;2023-02-15T05:46:30;0.60;99.90
72940;DHT22;61094;51.154;13.570;2023-02-15T05:48:33;0.60;99.90
72940;DHT22;61094;51.154;13.570;2023-02-15T05:50:35;0.60;99.90
72940;DHT22;61094;51.154;13.570;2023-02-15T05:52:37;0.70;99.90
72940;DHT22;61094;51.154;13.570;2023-02-15T05:54:38;0.70;99.90
72940;DHT22;61094;51.154;13.570;2023-02-15T05:56:40;0.70;99.90
72940;DHT22;61094;51.154;13.570;2023-02-15T05:58:42;0.70;99.90
72940;DHT22;61094;51.154;13.570;2023-02-15T06:00:43;0.70;99.90
72940;DHT22;61094;51.154;13.570;2023-02-15T06:02:45;0.70;99.90
72940;DHT22;61094;51.154;13.570;2023-02-15T06:04:48;0.70;99.90
72940;DHT22;61094;51.154;13.570;2023-02-15T06:06:50;0.70;99.90
72940;DHT22;61094;51.154;13.570;2023-02-15T06:08:52;0.70;99.90
72940;DHT22;61094;51.154;13.570;2023-02-15T06:10:53;0.70;99.90
72940;DHT22;61094;51.154;13.570;2023-02-15T06:12:55;0.70;99.90
72940;DHT22;61094;51.154;13.570;2023-02-15T06:14:57;0.70;99.90
72940;DHT22;61094;51.154;13.570;2023-02-15T06:16:58;0.80;99.90
72940;DHT22;61094;51.154;13.570;2023-02-15T06:19:00;0.80;99.90
72940;DHT22;61094;51.154;13.570;2023-02-15T06:21:03;0.80;99.90
72940;DHT22;61094;51.154;13.570;2023-02-15T06:23:05;0.80;99.90
72940;DHT22;61094;51.154;13.570;2023-02-15T06:25:07;0.80;99.90
72940;DHT22;61094;51.154;13.570;2023-02-15T06:27:10;0.80;99.90
72940;DHT22;61094;51.154;13.570;2023-02-15T06:29:12;0.80;99.90
72940;DHT22;61094;51.154;13.570;2023-02-15T06:31:13;0.80;99.90
72940;DHT22;61094;51.154;13.570;2023-02-15T06:33:15;0.80;99.90
72940;DHT22;61094;51.154;13.570;2023-02-15T06:35:17;0.80;99.90
72940;DHT22;61094;51.154;13.570;2023-02-15T06:37:20;0.70;99.90
72940;DHT22;61094;51.154;13.570;2023-02-15T06:39:22;0.80;99.90
72940;DHT22;61094;51.154;13.570;2023-02-15T06:41:23;0.80;99.90
72940;DHT22;61094;51.154;13.570;2023-02-15T06:43:25;0.80;99.90
72940;DHT22;61094;51.154;13.570;2023-02-15T06:45:27;0.80;99.90
72940;DHT22;61094;51.154;13.570;2023-02-15T06:47:29;0.80;99.90
72940;DHT22;61094;51.154;13.570;2023-02-15T06:49:30;0.80;99.90
72940;DHT22;61094;51.154;13.570;2023-02-15T06:51:32;0.80;99.90
72940;DHT22;61094;51.154;13.570;2023-02-15T06:53:35;0.80;99.90
72940;DHT22;61094;51.154;13.570;2023-02-15T06:55:37;0.80;99.90
72940;DHT22;61094;51.154;13.570;2023-02-15T06:57:39;0.90;99.90
72940;DHT22;61094;51.154;13.570;2023-02-15T06:59:40;0.90;99.90
72940;DHT22;61094;51.154;13.570;2023-02-15T07:01:42;0.90;99.90
72940;DHT22;61094;51.154;13.570;2023-02-15T07:03:44;0.90;99.90
72940;DHT22;61094;51.154;13.570;2023-02-15T07:05:45;0.90;99.90
72940;DHT22;61094;51.154;13.570;2023-02-15T07:07:49;0.90;99.90
72940;DHT22;61094;51.154;13.570;2023-02-15T07:09:52;0.90;99.90
72940;DHT22;61094;51.154;13.570;2023-02-15T07:11:53;1.00;99.90
72940;DHT22;61094;51.154;13.570;2023-02-15T07:14:12;1.00;99.90
72940;DHT22;61094;51.154;13.570;2023-02-15T07:16:14;1.00;99.90
72940;DHT22;61094;51.154;13.570;2023-02-15T07:18:16;1.10;99.90
72940;DHT22;61094;51.154;13.570;2023-02-15T07:20:19;1.10;99.90
72940;DHT22;61094;51.154;13.570;2023-02-15T07:22:21;1.10;99.90
72940;DHT22;61094;51.154;13.570;2023-02-15T07:24:23;1.10;99.90
72940;DHT22;61094;51.154;13.570;2023-02-15T07:26:26;1.20;99.90
72940;DHT22;61094;51.154;13.570;2023-02-15T07:28:28;1.20;99.90
72940;DHT22;61094;51.154;13.570;2023-02-15T07:30:30;1.20;99.90
72940;DHT22;61094;51.154;13.570;2023-02-15T07:32:32;1.20;99.90
72940;DHT22;61094;51.154;13.570;2023-02-15T07:34:34;1.30;99.90
72940;DHT22;61094;51.154;13.570;2023-02-15T07:36:36;1.30;99.90
72940;DHT22;61094;51.154;13.570;2023-02-15T07:38:39;1.40;99.90
72940;DHT22;61094;51.154;13.570;2023-02-15T07:40:41;1.40;99.90
72940;DHT22;61094;51.154;13.570;2023-02-15T07:42:44;1.40;99.90
72940;DHT22;61094;51.154;13.570;2023-02-15T07:44:46;1.50;99.90
72940;DHT22;61094;51.154;13.570;2023-02-15T07:46:47;1.60;99.90
72940;DHT22;61094;51.154;13.570;2023-02-15T07:48:49;1.60;99.90
72940;DHT22;61094;51.154;13.570;2023-02-15T07:50:51;1.70;99.90
72940;DHT22;61094;51.154;13.570;2023-02-15T07:52:52;1.80;99.90
72940;DHT22;61094;51.154;13.570;2023-02-15T07:54:54;1.80;99.90
72940;DHT22;61094;51.154;13.570;2023-02-15T07:56:56;2.00;99.90
72940;DHT22;61094;51.154;13.570;2023-02-15T07:58:59;2.00;99.90
72940;DHT22;61094;51.154;13.570;2023-02-15T08:01:03;2.20;99.90
72940;DHT22;61094;51.154;13.570;2023-02-15T08:03:05;2.30;99.90
72940;DHT22;61094;51.154;13.570;2023-02-15T08:05:15;2.40;99.90
72940;DHT22;61094;51.154;13.570;2023-02-15T08:07:18;2.60;99.90
72940;DHT22;61094;51.154;13.570;2023-02-15T08:09:20;2.70;99.90
72940;DHT22;61094;51.154;13.570;2023-02-15T08:11:23;2.90;99.90
72940;DHT22;61094;51.154;13.570;2023-02-15T08:13:29;3.10;99.90
72940;DHT22;61094;51.154;13.570;2023-02-15T08:15:32;3.20;99.90
72940;DHT22;61094;51.154;13.570;2023-02-15T08:17:36;3.30;99.90
72940;DHT22;61094;51.154;13.570;2023-02-15T08:19:37;3.40;99.90
72940;DHT22;61094;51.154;13.570;2023-02-15T08:21:40;3.60;99.90
72940;DHT22;61094;51.154;13.570;2023-02-15T08:23:42;3.70;99.90
72940;DHT22;61094;51.154;13.570;2023-02-15T08:25:44;3.80;99.90
72940;DHT22;61094;51.154;13.570;2023-02-15T08:27:45;3.90;99.90
72940;DHT22;61094;51.154;13.570;2023-02-15T08:29:47;4.10;99.90
72940;DHT22;61094;51.154;13.570;2023-02-15T08:31:53;4.20;99.90
72940;DHT22;61094;51.154;13.570;2023-02-15T08:33:59;4.30;99.90
72940;DHT22;61094;51.154;13.570;2023-02-15T08:36:04;4.50;99.90
72940;DHT22;61094;51.154;13.570;2023-02-15T08:38:06;4.60;99.90
72940;DHT22;61094;51.154;13.570;2023-02-15T08:40:09;4.70;99.90
72940;DHT22;61094;51.154;13.570;2023-02-15T08:42:10;4.90;99.90
72940;DHT22;61094;51.154;13.570;2023-02-15T08:44:13;5.00;99.90
72940;DHT22;61094;51.154;13.570;2023-02-15T08:46:16;5.10;99.90
72940;DHT22;61094;51.154;13.570;2023-02-15T08:48:19;5.20;99.90
72940;DHT22;61094;51.154;13.570;2023-02-15T08:50:20;5.40;99.90
72940;DHT22;61094;51.154;13.570;2023-02-15T08:52:22;5.60;99.90
72940;DHT22;61094;51.154;13.570;2023-02-15T08:54:24;5.80;99.90
72940;DHT22;61094;51.154;13.570;2023-02-15T08:56:27;5.90;99.90
72940;DHT22;61094;51.154;13.570;2023-02-15T08:58:29;6.10;99.90
72940;DHT22;61094;51.154;13.570;2023-02-15T09:00:31;6.30;99.90
72940;DHT22;61094;51.154;13.570;2023-02-15T09:02:33;6.60;99.90
72940;DHT22;61094;51.154;13.570;2023-02-15T09:04:38;6.80;99.90
72940;DHT22;61094;51.154;13.570;2023-02-15T09:06:41;7.20;99.90
72940;DHT22;61094;51.154;13.570;2023-02-15T09:08:43;7.50;99.90
72940;DHT22;61094;51.154;13.570;2023-02-15T09:10:45;7.70;97.70
72940;DHT22;61094;51.154;13.570;2023-02-15T09:12:46;7.80;99.90
72940;DHT22;61094;51.154;13.570;2023-02-15T09:14:50;8.10;99.90
72940;DHT22;61094;51.154;13.570;2023-02-15T09:16:52;8.40;98.30
72940;DHT22;61094;51.154;13.570;2023-02-15T09:18:54;8.60;96.70
72940;DHT22;61094;51.154;13.570;2023-02-15T09:21:05;8.90;91.20
72940;DHT22;61094;51.154;13.570;2023-02-15T09:23:07;9.10;97.60
72940;DHT22;61094;51.154;13.570;2023-02-15T09:25:09;9.40;99.90
72940;DHT22;61094;51.154;13.570;2023-02-15T09:27:10;9.60;93.50
72940;DHT22;61094;51.154;13.570;2023-02-15T09:29:13;9.70;97.30
72940;DHT22;61094;51.154;13.570;2023-02-15T09:31:17;9.90;93.40
72940;DHT22;61094;51.154;13.570;2023-02-15T09:33:19;10.00;82.50
72940;DHT22;61094;51.154;13.570;2023-02-15T09:35:21;10.10;86.80
72940;DHT22;61094;51.154;13.570;2023-02-15T09:37:24;10.00;89.10
72940;DHT22;61094;51.154;13.570;2023-02-15T09:39:26;10.00;72.90
72940;DHT22;61094;51.154;13.570;2023-02-15T09:41:53;9.90;88.60
72940;DHT22;61094;51.154;13.570;2023-02-15T09:44:06;10.00;92.70
72940;DHT22;61094;51.154;13.570;2023-02-15T09:46:32;10.10;94.00
72940;DHT22;61094;51.154;13.570;2023-02-15T09:48:40;10.20;96.10
72940;DHT22;61094;51.154;13.570;2023-02-15T09:50:52;10.30;95.20
72940;DHT22;61094;51.154;13.570;2023-02-15T09:53:12;10.40;94.50
72940;DHT22;61094;51.154;13.570;2023-02-15T09:55:24;10.50;98.30
72940;DHT22;61094;51.154;13.570;2023-02-15T09:57:37;10.60;83.20
72940;DHT22;61094;51.154;13.570;2023-02-15T09:59:49;10.70;99.90
72940;DHT22;61094;51.154;13.570;2023-02-15T10:02:02;10.80;95.40
72940;DHT22;61094;51.154;13.570;2023-02-15T10:04:22;11.00;82.80
72940;DHT22;61094;51.154;13.570;2023-02-15T10:06:32;11.10;99.90
72940;DHT22;61094;51.154;13.570;2023-02-15T10:09:02;11.20;99.90
72940;DHT22;61094;51.154;13.570;2023-02-15T10:11:11;11.50;99.90
72940;DHT22;61094;51.154;13.570;2023-02-15T10:13:41;11.60;86.50
72940;DHT22;61094;51.154;13.570;2023-02-15T10:15:56;11.40;92.30
72940;DHT22;61094;51.154;13.570;2023-02-15T10:18:23;11.50;99.00
72940;DHT22;61094;51.154;13.570;2023-02-15T10:20:33;11.70;99.90
72940;DHT22;61094;51.154;13.570;2023-02-15T10:22:53;11.90;93.80
72940;DHT22;61094;51.154;13.570;2023-02-15T10:25:19;12.00;90.20
72940;DHT22;61094;51.154;13.570;2023-02-15T10:27:23;12.20;99.90
72940;DHT22;61094;51.154;13.570;2023-02-15T10:29:32;12.30;90.90
72940;DHT22;61094;51.154;13.570;2023-02-15T10:31:43;12.50;84.60
72940;DHT22;61094;51.154;13.570;2023-02-15T10:33:56;12.70;99.90
72940;DHT22;61094;51.154;13.570;2023-02-15T10:36:11;12.80;99.90
72940;DHT22;61094;51.154;13.570;2023-02-15T10:38:24;13.00;99.00
72940;DHT22;61094;51.154;13.570;2023-02-15T10:40:36;13.20;90.60
72940;DHT22;61094;51.154;13.570;2023-02-15T10:42:54;13.40;96.70
72940;DHT22;61094;51.154;13.570;2023-02-15T10:45:09;13.40;95.30
72940;DHT22;61094;51.154;13.570;2023-02-15T10:47:26;13.50;56.70
72940;DHT22;61094;51.154;13.570;2023-02-15T10:49:42;13.30;80.80
72940;DHT22;61094;51.154;13.570;2023-02-15T10:52:02;13.30;80.50
72940;DHT22;61094;51.154;13.570;2023-02-15T10:54:16;13.20;68.10
72940;DHT22;61094;51.154;13.570;2023-02-15T10:56:29;13.20;92.50
72940;DHT22;61094;51.154;13.570;2023-02-15T10:58:44;13.30;93.50
72940;DHT22;61094;51.154;13.570;2023-02-15T11:00:54;13.20;91.70
72940;DHT22;61094;51.154;13.570;2023-02-15T11:03:17;13.20;73.90
72940;DHT22;61094;51.154;13.570;2023-02-15T11:05:37;13.20;97.90
72940;DHT22;61094;51.154;13.570;2023-02-15T11:07:42;13.40;96.30
72940;DHT22;61094;51.154;13.570;2023-02-15T11:09:49;13.50;99.90
72940;DHT22;61094;51.154;13.570;2023-02-15T11:11:56;13.60;99.50
72940;DHT22;61094;51.154;13.570;2023-02-15T11:14:02;13.80;92.10
72940;DHT22;61094;51.154;13.570;2023-02-15T11:16:07;13.80;93.80
72940;DHT22;61094;51.154;13.570;2023-02-15T11:18:15;13.70;92.40
72940;DHT22;61094;51.154;13.570;2023-02-15T11:20:24;13.60;60.80
72940;DHT22;61094;51.154;13.570;2023-02-15T11:22:31;13.40;98.80
72940;DHT22;61094;51.154;13.570;2023-02-15T11:24:39;13.30;99.80
72940;DHT22;61094;51.154;13.570;2023-02-15T11:26:43;13.40;91.20
72940;DHT22;61094;51.154;13.570;2023-02-15T11:28:51;13.70;99.90
72940;DHT22;61094;51.154;13.570;2023-02-15T11:30:56;13.90;87.60
72940;DHT22;61094;51.154;13.570;2023-02-15T11:33:02;14.00;95.40
72940;DHT22;61094;51.154;13.570;2023-02-15T11:35:20;14.20;96.40
72940;DHT22;61094;51.154;13.570;2023-02-15T11:37:28;14.20;58.90
72940;DHT22;61094;51.154;13.570;2023-02-15T11:39:33;14.20;91.50
72940;DHT22;61094;51.154;13.570;2023-02-15T11:41:38;14.30;95.10
72940;DHT22;61094;51.154;13.570;2023-02-15T11:43:44;14.20;61.00
72940;DHT22;61094;51.154;13.570;2023-02-15T11:45:49;14.00;93.10
72940;DHT22;61094;51.154;13.570;2023-02-15T11:47:51;13.90;94.70
72940;DHT22;61094;51.154;13.570;2023-02-15T11:49:53;13.80;86.40
72940;DHT22;61094;51.154;13.570;2023-02-15T11:51:56;13.70;89.30
72940;DHT22;61094;51.154;13.570;2023-02-15T11:53:58;13.60;89.90
72940;DHT22;61094;51.154;13.570;2023-02-15T11:56:00;13.50;78.40
72940;DHT22;61094;51.154;13.570;2023-02-15T11:58:23;13.40;86.10
72940;DHT22;61094;51.154;13.570;2023-02-15T12:00:32;13.10;68.80
72940;DHT22;61094;51.154;13.570;2023-02-15T12:02:42;13.00;59.30
72940;DHT22;61094;51.154;13.570;2023-02-15T12:04:49;12.80;93.10
72940;DHT22;61094;51.154;13.570;2023-02-15T12:06:56;12.70;81.90
72940;DHT22;61094;51.154;13.570;2023-02-15T12:09:03;12.60;87.10
72940;DHT22;61094;51.154;13.570;2023-02-15T12:11:09;12.60;86.60
72940;DHT22;61094;51.154;13.570;2023-02-15T12:13:15;12.80;96.70
72940;DHT22;61094;51.154;13.570;2023-02-15T12:15:30;12.90;99.90
72940;DHT22;61094;51.154;13.570;2023-02-15T12:17:35;13.10;69.80
72940;DHT22;61094;51.154;13.570;2023-02-15T12:19:40;13.20;82.60
72940;DHT22;61094;51.154;13.570;2023-02-15T12:21:42;13.20;86.80
72940;DHT22;61094;51.154;13.570;2023-02-15T12:23:48;13.30;68.60
72940;DHT22;61094;51.154;13.570;2023-02-15T12:25:51;13.30;72.10
72940;DHT22;61094;51.154;13.570;2023-02-15T12:27:54;13.10;62.10
72940;DHT22;61094;51.154;13.570;2023-02-15T12:29:59;12.90;55.80
72940;DHT22;61094;51.154;13.570;2023-02-15T12:32:03;12.70;70.00
72940;DHT22;61094;51.154;13.570;2023-02-15T12:34:11;12.70;67.30
72940;DHT22;61094;51.154;13.570;2023-02-15T12:36:19;12.70;77.80
72940;DHT22;61094;51.154;13.570;2023-02-15T12:38:23;12.60;60.20
72940;DHT22;61094;51.154;13.570;2023-02-15T12:40:27;12.60;84.90
72940;DHT22;61094;51.154;13.570;2023-02-15T12:42:41;12.70;90.70
72940;DHT22;61094;51.154;13.570;2023-02-15T12:44:53;12.80;68.40
72940;DHT22;61094;51.154;13.570;2023-02-15T12:46:58;13.10;95.00
72940;DHT22;61094;51.154;13.570;2023-02-15T12:49:06;13.30;94.70
72940;DHT22;61094;51.154;13.570;2023-02-15T12:51:14;13.50;92.20
72940;DHT22;61094;51.154;13.570;2023-02-15T12:53:20;13.60;97.50
72940;DHT22;61094;51.154;13.570;2023-02-15T12:55:25;13.60;68.40
72940;DHT22;61094;51.154;13.570;2023-02-15T12:57:29;13.70;81.30
72940;DHT22;61094;51.154;13.570;2023-02-15T12:59:31;13.70;85.90
72940;DHT22;61094;51.154;13.570;2023-02-15T13:01:33;13.70;87.00
72940;DHT22;61094;51.154;13.570;2023-02-15T13:03:35;13.60;58.60
72940;DHT22;61094;51.154;13.570;2023-02-15T13:05:40;13.40;55.90
72940;DHT22;61094;51.154;13.570;2023-02-15T13:07:45;13.40;86.90
72940;DHT22;61094;51.154;13.570;2023-02-15T13:09:49;13.40;93.30
72940;DHT22;61094;51.154;13.570;2023-02-15T13:11:51;13.50;99.10
72940;DHT22;61094;51.154;13.570;2023-02-15T13:13:56;13.40;85.80
72940;DHT22;61094;51.154;13.570;2023-02-15T13:16:01;13.50;68.80